Time;durP1;ratioP1;P1;durP2;ratioP2;P2;SDS_P1;SDS_P2;PMS_P1;PMS_P2;Temp;Humidity;BMP_temperature;BMP_pressure;BME280_temperature;BME280_humidity;BME280_pressure;Samples;Min_cycle;Max_cycle;Signal;HPM_P1;HPM_P2
2023/09/27 00:02:01;;;;;;;17.10;7.57;;;15.70;99.90;15.70;101113.00;;;;4996214;28;88455;-66
2023/09/27 00:04:28;;;;;;;13.90;6.88;;;15.70;99.90;15.70;101117.00;;;;4991345;27;115930;-66
2023/09/27 00:06:53;;;;;;;14.23;7.68;;;15.70;99.90;15.70;101115.00;;;;4993151;28;88419;-67
2023/09/27 00:09:19;;;;;;;9.20;5.78;;;15.60;99.90;15.70;101113.00;;;;4962288;28;87766;-66
2023/09/27 00:11:45;;;;;;;9.02;6.38;;;15.80;99.90;15.60;101110.00;;;;4994006;28;91262;-66
2023/09/27 00:14:13;;;;;;;9.20;6.07;;;15.60;99.90;15.60;101117.00;;;;4989161;28;118007;-66
2023/09/27 00:16:39;;;;;;;6.88;5.70;;;15.60;99.90;15.60;101108.00;;;;4993353;28;87833;-67
2023/09/27 00:19:05;;;;;;;10.70;5.82;;;15.50;99.90;15.60;101112.00;;;;4991255;28;88530;-67
2023/09/27 00:21:31;;;;;;;6.70;4.00;;;15.50;99.90;15.60;101108.00;;;;4988014;28;94342;-67
2023/09/27 00:23:56;;;;;;;5.28;3.33;;;15.50;99.90;15.50;101119.00;;;;4990730;28;99386;-67
2023/09/27 00:26:22;;;;;;;7.22;4.88;;;15.50;99.90;15.50;101126.00;;;;4990240;28;105080;-66
2023/09/27 00:28:48;;;;;;;6.40;4.50;;;15.50;99.90;15.40;101119.00;;;;4994525;28;111055;-67
2023/09/27 00:31:15;;;;;;;7.75;4.47;;;15.40;99.90;15.40;101129.00;;;;4992598;28;108511;-67
2023/09/27 00:33:40;;;;;;;7.00;3.70;;;15.40;99.90;15.40;101117.00;;;;4990521;28;89786;-67
2023/09/27 00:36:06;;;;;;;7.57;4.72;;;15.30;99.90;15.30;101117.00;;;;4990312;28;117887;-68
2023/09/27 00:38:31;;;;;;;6.00;5.10;;;15.30;99.90;15.30;101129.00;;;;4971145;28;109492;-67
2023/09/27 00:40:57;;;;;;;4.82;4.40;;;15.30;99.90;15.30;101121.00;;;;4990554;28;107784;-66
2023/09/27 00:43:28;;;;;;;7.10;3.88;;;15.20;99.90;15.20;101117.00;;;;4989740;28;96642;-66
2023/09/27 00:45:57;;;;;;;6.82;3.85;;;15.40;99.90;15.20;101115.00;;;;4975889;28;88898;-67
2023/09/27 00:48:24;;;;;;;6.50;5.03;;;15.20;99.90;15.20;101121.00;;;;4980469;28;87630;-67
2023/09/27 00:50:52;;;;;;;8.30;4.30;;;15.10;99.90;15.10;101116.00;;;;4979107;28;89025;-66
2023/09/27 00:53:18;;;;;;;6.20;4.38;;;15.10;99.90;15.10;101113.00;;;;4992968;28;95713;-67
2023/09/27 00:55:43;;;;;;;5.00;4.03;;;15.00;99.90;15.00;101111.00;;;;4989636;28;87814;-66
2023/09/27 00:58:11;;;;;;;6.03;4.25;;;15.50;99.90;14.90;101106.00;;;;4990858;28;110544;-66
2023/09/27 01:00:37;;;;;;;9.30;4.40;;;14.90;99.90;14.90;101114.00;;;;4978041;28;88047;-65
2023/09/27 01:03:05;;;;;;;7.20;4.03;;;14.90;99.90;14.80;101114.00;;;;4977337;27;88206;-66
2023/09/27 01:05:31;;;;;;;4.65;3.95;;;14.80;99.90;14.80;101115.00;;;;4988733;28;88080;-67
2023/09/27 01:07:57;;;;;;;7.85;4.97;;;14.80;99.90;14.70;101109.00;;;;4972875;28;110835;-67
2023/09/27 01:10:23;;;;;;;5.40;3.67;;;14.70;99.90;14.70;101107.00;;;;4991730;28;87581;-67
2023/09/27 01:12:49;;;;;;;5.60;4.07;;;14.70;99.90;14.70;101104.00;;;;4991873;28;116868;-68
2023/09/27 01:15:15;;;;;;;6.72;4.07;;;14.60;99.90;14.70;101099.00;;;;4970584;28;117386;-67
2023/09/27 01:17:58;;;;;;;5.10;3.83;;;14.60;99.90;14.60;101106.00;;;;4973422;28;87954;-66
2023/09/27 01:20:28;;;;;;;4.35;3.95;;;14.60;99.90;14.60;101103.00;;;;4978300;28;87957;-67
2023/09/27 01:23:05;;;;;;;6.07;3.90;;;14.60;99.90;14.60;101103.00;;;;4989726;28;97905;-67
2023/09/27 01:25:32;;;;;;;5.70;4.57;;;14.60;99.90;14.60;101104.00;;;;4974373;28;87836;-67
2023/09/27 01:28:01;;;;;;;4.90;4.03;;;14.60;99.90;14.60;101106.00;;;;4991044;28;87824;-67
2023/09/27 01:30:34;;;;;;;5.43;3.55;;;14.50;99.90;14.60;101091.00;;;;4970311;28;87755;-67
2023/09/27 01:33:06;;;;;;;7.80;4.32;;;14.40;99.90;14.60;101083.00;;;;4987617;28;88563;-67
2023/09/27 01:35:40;;;;;;;4.35;3.95;;;14.50;99.90;14.50;101088.00;;;;4993725;28;87935;-67
2023/09/27 01:38:08;;;;;;;5.20;3.83;;;14.50;99.90;14.50;101077.00;;;;4985200;27;88022;-66
2023/09/27 01:40:37;;;;;;;4.20;3.42;;;14.40;99.90;14.40;101075.00;;;;4992546;28;97452;-66
2023/09/27 01:43:04;;;;;;;6.30;3.55;;;14.40;99.90;14.40;101077.00;;;;4988695;28;88422;-67
2023/09/27 01:45:31;;;;;;;4.70;4.20;;;14.40;99.90;14.40;101075.00;;;;4989492;28;88166;-66
2023/09/27 01:48:01;;;;;;;4.10;3.05;;;14.40;99.90;14.40;101086.00;;;;4992172;28;87853;-66
2023/09/27 01:50:29;;;;;;;5.00;2.88;;;14.30;99.90;14.30;101088.00;;;;4990586;28;88252;-67
2023/09/27 01:52:57;;;;;;;6.47;4.03;;;14.30;99.90;14.30;101080.00;;;;4967965;28;88095;-67
2023/09/27 01:55:24;;;;;;;4.55;3.42;;;14.30;99.90;14.30;101077.00;;;;4986068;28;89670;-67
2023/09/27 01:57:50;;;;;;;6.22;4.07;;;14.70;99.90;14.30;101082.00;;;;4972425;28;87111;-67
2023/09/27 02:00:18;;;;;;;6.63;4.10;;;14.30;99.90;14.30;101077.00;;;;4988888;28;87706;-67
2023/09/27 02:02:55;;;;;;;7.18;5.32;;;14.10;99.90;14.20;101082.00;;;;4972420;28;89666;-66
2023/09/27 02:05:21;;;;;;;6.85;3.95;;;14.20;99.90;14.20;101085.00;;;;4970659;28;88846;-67
2023/09/27 02:07:47;;;;;;;2.72;2.17;;;14.20;99.90;14.20;101080.00;;;;4973089;28;87526;-68
2023/09/27 02:10:13;;;;;;;6.05;3.97;;;14.20;99.90;14.20;101087.00;;;;4968088;28;87950;-66
2023/09/27 02:12:39;;;;;;;7.20;4.03;;;14.20;99.90;14.10;101089.00;;;;4992587;28;87677;-67
2023/09/27 02:15:10;;;;;;;8.88;4.35;;;14.10;99.90;14.10;101075.00;;;;4991083;28;88912;-67
2023/09/27 02:17:37;;;;;;;5.57;3.83;;;14.10;99.90;14.10;101088.00;;;;4991221;28;87609;-67
2023/09/27 02:20:07;;;;;;;6.10;4.78;;;14.10;99.90;14.10;101099.00;;;;4973572;28;87728;-67
2023/09/27 02:22:37;;;;;;;2.95;2.35;;;14.10;99.90;14.10;101088.00;;;;4988674;28;87153;-66
2023/09/27 02:25:05;;;;;;;5.35;3.33;;;14.00;99.90;14.00;101094.00;;;;4959984;28;89426;-66
2023/09/27 02:27:32;;;;;;;3.83;3.25;;;14.10;99.90;14.00;101086.00;;;;4988537;28;87791;-66
2023/09/27 02:29:57;;;;;;;4.57;4.10;;;14.00;99.90;14.00;101091.00;;;;4989180;28;88344;-66
2023/09/27 02:32:23;;;;;;;4.78;3.35;;;14.00;99.90;14.00;101095.00;;;;4989178;28;88396;-66
2023/09/27 02:34:49;;;;;;;4.75;3.33;;;14.00;99.90;14.00;101077.00;;;;4985114;28;89142;-66
2023/09/27 02:37:15;;;;;;;7.53;3.45;;;14.00;99.90;14.00;101084.00;;;;4990210;28;108790;-67
2023/09/27 02:39:44;;;;;;;4.65;3.22;;;14.00;99.90;14.00;101082.00;;;;4991245;28;88220;-66
2023/09/27 02:42:10;;;;;;;5.13;3.08;;;13.90;99.90;13.90;101081.00;;;;4991691;28;118807;-66
2023/09/27 02:44:36;;;;;;;2.95;2.70;;;13.90;99.90;13.90;101084.00;;;;4989876;28;89149;-67
2023/09/27 02:47:02;;;;;;;6.47;4.25;;;13.90;99.90;13.90;101089.00;;;;4988045;28;108250;-67
2023/09/27 02:49:28;;;;;;;3.58;3.28;;;13.90;99.90;13.90;101083.00;;;;4956905;28;87586;-66
2023/09/27 02:51:55;;;;;;;5.67;4.47;;;13.90;99.90;13.80;101086.00;;;;4991284;28;88337;-67
2023/09/27 02:54:21;;;;;;;4.35;3.55;;;14.10;99.90;13.80;101082.00;;;;4987236;28;88555;-67
2023/09/27 02:56:47;;;;;;;6.18;4.22;;;13.80;99.90;13.80;101087.00;;;;4988454;27;87776;-67
2023/09/27 02:59:13;;;;;;;4.63;4.03;;;13.90;99.90;13.80;101086.00;;;;4974885;28;87054;-67
2023/09/27 03:01:40;;;;;;;4.30;3.47;;;13.80;99.90;13.70;101088.00;;;;4989770;28;115602;-67
2023/09/27 03:04:07;;;;;;;4.18;2.88;;;13.70;99.90;13.70;101092.00;;;;4990168;28;88706;-67
2023/09/27 03:06:37;;;;;;;6.75;3.60;;;13.70;99.90;13.70;101104.00;;;;4988741;28;87692;-68
2023/09/27 03:09:04;;;;;;;5.18;4.32;;;13.70;99.90;13.70;101101.00;;;;4990014;27;87727;-68
2023/09/27 03:11:30;;;;;;;4.72;3.17;;;13.70;99.90;13.60;101103.00;;;;4995623;28;87657;-68
2023/09/27 03:13:56;;;;;;;7.22;4.07;;;13.60;99.90;13.60;101103.00;;;;4992290;28;115977;-68
2023/09/27 03:16:22;;;;;;;4.03;3.53;;;13.60;99.90;13.60;101106.00;;;;4992195;28;87821;-67
2023/09/27 03:18:48;;;;;;;4.73;3.37;;;13.60;99.90;13.60;101107.00;;;;4980217;28;88744;-68
2023/09/27 03:21:13;;;;;;;6.03;2.95;;;13.60;99.90;13.50;101107.00;;;;4994678;28;88060;-68
2023/09/27 03:23:39;;;;;;;5.40;3.20;;;13.50;99.90;13.50;101115.00;;;;4988318;28;115107;-67
2023/09/27 03:26:05;;;;;;;4.40;3.00;;;13.50;99.90;13.50;101121.00;;;;4991183;28;110478;-67
2023/09/27 03:28:31;;;;;;;3.97;2.90;;;13.50;99.90;13.50;101105.00;;;;4991700;28;87891;-68
2023/09/27 03:30:57;;;;;;;5.22;4.25;;;13.50;99.90;13.50;101124.00;;;;4972457;28;95287;-67
2023/09/27 03:33:22;;;;;;;4.85;3.47;;;13.50;99.90;13.40;101115.00;;;;4991875;28;116951;-68
2023/09/27 03:35:48;;;;;;;5.47;3.33;;;13.40;99.90;13.40;101110.00;;;;4996457;28;87129;-67
2023/09/27 03:38:14;;;;;;;4.93;3.63;;;13.40;99.90;13.40;101101.00;;;;4990852;28;108049;-66
2023/09/27 03:40:40;;;;;;;4.33;3.93;;;13.40;99.90;13.40;101100.00;;;;4995255;28;89162;-67
2023/09/27 03:43:05;;;;;;;4.40;4.00;;;13.40;99.90;13.30;101095.00;;;;4989020;28;113152;-67
2023/09/27 03:45:35;;;;;;;5.13;3.77;;;13.30;99.90;13.20;101102.00;;;;4992405;28;109416;-66
2023/09/27 03:48:02;;;;;;;6.33;4.63;;;13.30;99.90;13.20;101088.00;;;;4997435;28;88026;-66
2023/09/27 03:50:32;;;;;;;5.57;4.23;;;13.20;99.90;13.20;101108.00;;;;4993664;28;88476;-67
2023/09/27 03:52:58;;;;;;;7.45;3.72;;;13.20;99.90;13.10;101103.00;;;;4993320;28;87849;-67
2023/09/27 03:55:25;;;;;;;4.70;4.10;;;13.10;99.90;13.10;101103.00;;;;4990325;28;94205;-67
2023/09/27 03:57:51;;;;;;;9.40;4.10;;;13.10;99.90;13.10;101103.00;;;;4990876;28;87619;-66
2023/09/27 04:00:18;;;;;;;6.00;4.07;;;13.10;99.90;13.10;101095.00;;;;4976512;28;86995;-67
2023/09/27 04:02:44;;;;;;;5.70;4.07;;;13.90;99.90;13.00;101106.00;;;;4970237;28;87719;-66
2023/09/27 04:05:11;;;;;;;5.20;3.57;;;13.00;99.90;13.00;101100.00;;;;4970172;28;87783;-66
2023/09/27 04:07:37;;;;;;;4.13;3.67;;;13.00;99.90;13.00;101103.00;;;;4993674;28;88411;-66
2023/09/27 04:10:04;;;;;;;4.43;3.00;;;13.00;99.90;13.00;101117.00;;;;4990199;28;118622;-66
2023/09/27 04:12:30;;;;;;;6.47;3.57;;;13.00;99.90;13.00;101120.00;;;;4995694;28;87576;-66
2023/09/27 04:14:56;;;;;;;4.00;3.60;;;12.90;99.90;12.90;101119.00;;;;4993357;28;107535;-66
2023/09/27 04:17:22;;;;;;;6.53;4.13;;;13.00;99.90;12.90;101108.00;;;;4995143;28;88033;-66
2023/09/27 04:19:51;;;;;;;4.13;3.73;;;12.90;99.90;12.90;101118.00;;;;4994629;28;87861;-66
2023/09/27 04:22:16;;;;;;;4.77;3.37;;;12.90;99.90;12.90;101114.00;;;;4998422;28;88932;-66
2023/09/27 04:24:42;;;;;;;3.90;3.10;;;12.90;99.90;12.90;101117.00;;;;4995747;28;111259;-67
2023/09/27 04:27:08;;;;;;;3.93;3.40;;;12.90;99.90;12.80;101106.00;;;;4995213;28;99345;-68
2023/09/27 04:29:34;;;;;;;5.67;4.20;;;12.80;99.90;12.80;101110.00;;;;4974334;28;87596;-67
2023/09/27 04:31:59;;;;;;;6.80;4.57;;;12.80;99.90;12.80;101113.00;;;;4990435;28;88693;-67
2023/09/27 04:34:25;;;;;;;3.43;3.13;;;12.80;99.90;12.70;101101.00;;;;4987588;28;110782;-67
2023/09/27 04:36:54;;;;;;;7.13;4.07;;;12.80;99.90;12.70;101102.00;;;;4994738;28;108465;-67
2023/09/27 04:39:20;;;;;;;5.23;3.43;;;12.70;99.90;12.60;101111.00;;;;4993309;28;116686;-67
2023/09/27 04:41:46;;;;;;;6.47;3.90;;;12.60;99.90;12.60;101114.00;;;;4989272;28;117879;-66
2023/09/27 04:44:13;;;;;;;5.30;3.93;;;12.60;99.90;12.60;101108.00;;;;4990575;28;108617;-66
2023/09/27 04:46:39;;;;;;;3.20;2.87;;;12.60;99.90;12.50;101113.00;;;;4994687;28;88610;-66
2023/09/27 04:49:05;;;;;;;4.07;3.60;;;12.50;99.90;12.50;101117.00;;;;4990179;28;87349;-67
2023/09/27 04:51:31;;;;;;;6.03;4.30;;;12.50;99.90;12.50;101119.00;;;;4991881;27;87671;-67
2023/09/27 04:54:03;;;;;;;4.17;3.63;;;12.50;99.90;12.50;101120.00;;;;4985951;28;109368;-67
2023/09/27 04:56:31;;;;;;;6.47;3.43;;;12.50;99.90;12.50;101123.00;;;;4990768;28;88670;-67
2023/09/27 04:59:01;;;;;;;5.63;3.77;;;12.50;99.90;12.50;101125.00;;;;4992117;28;88871;-66
2023/09/27 05:01:28;;;;;;;4.53;3.07;;;12.50;99.90;12.60;101126.00;;;;4984665;28;87712;-68
2023/09/27 05:03:53;;;;;;;6.13;3.50;;;12.50;99.90;12.60;101120.00;;;;4975634;28;88237;-67
2023/09/27 05:06:20;;;;;;;5.07;3.67;;;12.50;99.90;12.60;101132.00;;;;4988768;28;109068;-66
2023/09/27 05:08:50;;;;;;;4.97;3.83;;;12.60;99.90;12.60;101139.00;;;;4988613;28;88636;-69
2023/09/27 05:11:18;;;;;;;4.33;3.50;;;12.50;99.90;12.50;101125.00;;;;4988628;28;88150;-67
2023/09/27 05:13:46;;;;;;;5.23;4.13;;;12.50;99.90;12.50;101126.00;;;;4990563;28;86960;-67
2023/09/27 05:16:12;;;;;;;5.13;3.80;;;12.50;99.90;12.50;101122.00;;;;4987454;28;88125;-68
2023/09/27 05:18:38;;;;;;;4.43;3.40;;;12.50;99.90;12.40;101123.00;;;;4988078;28;87747;-66
2023/09/27 05:21:05;;;;;;;5.13;3.77;;;12.40;99.90;12.40;101140.00;;;;4989450;28;116150;-67
2023/09/27 05:23:32;;;;;;;5.33;3.80;;;12.40;99.90;12.40;101140.00;;;;4988023;28;90058;-67
2023/09/27 05:25:57;;;;;;;4.50;3.77;;;12.40;99.90;12.50;101153.00;;;;4993027;28;87568;-67
2023/09/27 05:28:23;;;;;;;4.30;3.67;;;12.50;99.90;12.50;101150.00;;;;4990153;28;89612;-66
2023/09/27 05:30:49;;;;;;;5.23;3.90;;;12.50;99.90;12.60;101155.00;;;;4982935;28;116994;-66
2023/09/27 05:33:14;;;;;;;5.37;4.20;;;12.50;99.90;12.60;101153.00;;;;4987511;28;87917;-67
2023/09/27 05:35:40;;;;;;;7.63;4.20;;;12.60;99.90;12.70;101153.00;;;;4989254;28;108540;-67
2023/09/27 05:38:06;;;;;;;7.97;4.93;;;12.60;99.90;12.80;101161.00;;;;4991656;28;90790;-68
2023/09/27 05:40:32;;;;;;;6.07;4.10;;;12.70;99.90;12.90;101160.00;;;;4990866;28;88107;-66
2023/09/27 05:42:57;;;;;;;5.73;4.17;;;12.80;99.90;13.00;101161.00;;;;4990975;28;110981;-66
2023/09/27 05:45:23;;;;;;;7.20;4.73;;;13.30;99.90;13.10;101165.00;;;;4990180;28;109084;-67
2023/09/27 05:47:49;;;;;;;6.00;4.00;;;13.10;99.90;13.20;101169.00;;;;4985251;28;114161;-66
2023/09/27 05:50:15;;;;;;;4.83;3.63;;;13.20;99.90;13.40;101161.00;;;;4983800;28;88044;-67
2023/09/27 05:52:46;;;;;;;6.03;4.77;;;13.30;99.90;13.60;101169.00;;;;4989768;28;87728;-66
2023/09/27 05:55:12;;;;;;;4.23;3.00;;;13.50;99.90;13.80;101185.00;;;;4989497;28;87877;-67
2023/09/27 05:57:38;;;;;;;6.63;3.70;;;13.70;99.90;14.00;101194.00;;;;4988625;27;88644;-66
2023/09/27 06:00:26;;;;;;;3.90;3.17;;;13.80;99.90;14.20;101194.00;;;;4988694;28;105917;-66
2023/09/27 06:02:52;;;;;;;5.22;3.10;;;14.10;99.90;14.50;101186.00;;;;4977901;28;87734;-66
2023/09/27 06:05:18;;;;;;;5.18;3.25;;;14.40;99.90;14.70;101187.00;;;;4988033;28;87896;-65
2023/09/27 06:07:47;;;;;;;4.88;3.35;;;14.50;99.90;14.90;101193.00;;;;4991280;28;96385;-66
2023/09/27 06:10:12;;;;;;;4.60;3.50;;;14.70;99.90;15.10;101192.00;;;;4987894;28;88735;-67
2023/09/27 06:12:38;;;;;;;5.10;3.38;;;14.90;99.90;15.30;101191.00;;;;4985871;28;109398;-67
2023/09/27 06:15:05;;;;;;;9.32;4.45;;;15.10;99.90;15.50;101189.00;;;;4989266;28;88316;-66
2023/09/27 06:17:32;;;;;;;6.82;3.97;;;15.40;99.90;15.70;101199.00;;;;4986584;27;88006;-66
2023/09/27 06:19:58;;;;;;;4.22;3.67;;;15.50;99.90;15.90;101204.00;;;;4988791;28;88250;-66
2023/09/27 06:22:23;;;;;;;8.23;4.43;;;15.80;99.90;16.10;101204.00;;;;4989374;28;108974;-66
2023/09/27 06:24:49;;;;;;;4.85;3.53;;;16.00;99.90;16.30;101207.00;;;;4988176;28;108810;-66
2023/09/27 06:27:16;;;;;;;4.65;3.45;;;16.20;99.90;16.60;101215.00;;;;4973299;28;87102;-66
2023/09/27 06:29:42;;;;;;;5.65;4.13;;;16.40;99.90;16.80;101221.00;;;;4972624;28;87947;-66
2023/09/27 06:32:07;;;;;;;4.82;4.15;;;16.60;99.90;17.10;101227.00;;;;4970782;28;90107;-67
2023/09/27 06:34:35;;;;;;;10.10;4.22;;;16.90;99.90;17.40;101220.00;;;;4975768;28;108922;-66
2023/09/27 06:37:01;;;;;;;6.15;4.43;;;17.20;99.90;17.70;101219.00;;;;4989266;28;87871;-67
2023/09/27 06:39:26;;;;;;;4.82;3.95;;;17.50;99.90;18.00;101225.00;;;;4986883;28;117068;-67
2023/09/27 06:41:52;;;;;;;6.18;4.07;;;17.70;99.90;18.20;101219.00;;;;4969522;28;87542;-66
2023/09/27 06:44:18;;;;;;;5.22;3.55;;;18.00;99.90;18.50;101224.00;;;;4986769;27;87850;-67
2023/09/27 06:46:45;;;;;;;4.97;3.72;;;18.20;99.90;18.70;101221.00;;;;4991170;28;88746;-67
2023/09/27 06:49:12;;;;;;;6.20;3.63;;;18.50;99.90;19.00;101227.00;;;;4992362;28;92995;-67
2023/09/27 06:51:38;;;;;;;6.97;4.07;;;18.80;99.90;19.30;101232.00;;;;4990154;28;87907;-66
2023/09/27 06:54:05;;;;;;;8.20;3.55;;;19.10;99.90;19.60;101237.00;;;;4993093;28;88883;-66
2023/09/27 06:56:31;;;;;;;7.88;4.22;;;19.30;99.90;19.90;101244.00;;;;4993411;27;88084;-67
2023/09/27 06:58:56;;;;;;;6.15;3.85;;;19.60;99.90;20.20;101249.00;;;;4993583;27;88921;-67
2023/09/27 07:01:24;;;;;;;4.00;3.53;;;19.90;99.90;20.50;101256.00;;;;4991992;28;87847;-67
2023/09/27 07:03:50;;;;;;;4.65;3.28;;;20.20;99.90;20.80;101255.00;;;;4990066;28;87584;-68
2023/09/27 07:06:17;;;;;;;4.70;3.83;;;20.60;99.90;21.10;101249.00;;;;4962433;28;90495;-67
2023/09/27 07:08:44;;;;;;;5.63;3.55;;;20.90;99.90;21.40;101259.00;;;;4988639;28;96617;-66
2023/09/27 07:11:10;;;;;;;4.97;3.15;;;21.20;99.90;21.80;101261.00;;;;4990915;28;87764;-67
2023/09/27 07:13:40;;;;;;;4.68;3.03;;;21.50;99.90;22.10;101272.00;;;;4990839;28;87955;-67
2023/09/27 07:16:28;;;;;;;5.55;3.22;;;21.80;99.90;22.40;101268.00;;;;4990017;28;87025;-68
2023/09/27 07:18:54;;;;;;;5.50;3.40;;;22.10;99.90;22.60;101257.00;;;;4998142;28;87673;-68
2023/09/27 07:21:24;;;;;;;3.85;3.42;;;22.40;99.90;22.90;101269.00;;;;4992209;28;87528;-68
2023/09/27 07:23:52;;;;;;;10.00;2.70;;;22.70;99.90;23.10;101269.00;;;;4995967;28;88652;-67
2023/09/27 07:26:18;;;;;;;4.80;3.20;;;22.90;99.90;23.20;101282.00;;;;4993389;28;87713;-67
2023/09/27 07:28:45;;;;;;;4.13;3.10;;;23.00;99.90;23.30;101283.00;;;;4990006;28;87900;-68
2023/09/27 07:31:15;;;;;;;12.23;3.72;;;23.10;99.90;23.50;101273.00;;;;4997005;28;87919;-67
2023/09/27 07:33:43;;;;;;;4.65;3.08;;;23.30;99.90;23.70;101278.00;;;;4989147;28;87917;-67
2023/09/27 07:36:09;;;;;;;4.25;3.25;;;23.50;99.90;24.00;101282.00;;;;4990337;28;109807;-67
2023/09/27 07:38:39;;;;;;;5.55;3.95;;;23.70;99.60;24.20;101278.00;;;;4989482;28;88626;-67
2023/09/27 07:41:08;;;;;;;3.75;2.88;;;24.00;98.90;24.40;101276.00;;;;4993183;28;86857;-66
2023/09/27 07:43:34;;;;;;;4.28;2.80;;;24.40;98.40;24.60;101280.00;;;;4982242;28;87794;-68
2023/09/27 07:46:06;;;;;;;4.43;3.20;;;24.40;97.70;24.80;101273.00;;;;4988026;28;117845;-67
2023/09/27 07:48:39;;;;;;;3.17;2.83;;;24.60;97.30;24.90;101287.00;;;;4982766;28;88689;-67
2023/09/27 07:51:19;;;;;;;4.28;2.70;;;24.70;96.70;24.90;101285.00;;;;4994783;28;87669;-68
2023/09/27 07:53:45;;;;;;;3.67;2.58;;;24.90;96.10;24.80;101283.00;;;;4983841;28;88010;-66
2023/09/27 07:56:22;;;;;;;4.10;3.17;;;24.70;95.70;24.80;101280.00;;;;4992053;28;88633;-67
2023/09/27 07:58:51;;;;;;;7.15;3.20;;;24.70;95.70;24.80;101278.00;;;;4993682;28;108295;-67
2023/09/27 08:01:21;;;;;;;2.90;2.70;;;24.70;95.20;24.90;101273.00;;;;4989236;28;87872;-68
2023/09/27 08:04:06;;;;;;;10.82;2.65;;;24.70;94.80;25.10;101272.00;;;;4979605;28;87836;-66
2023/09/27 08:06:35;;;;;;;8.77;3.78;;;24.90;94.50;25.10;101268.00;;;;4992051;28;86949;-67
2023/09/27 08:09:01;;;;;;;4.22;2.85;;;24.90;93.40;25.10;101265.00;;;;4994367;28;88593;-65
2023/09/27 08:11:28;;;;;;;5.60;3.40;;;24.90;93.30;25.10;101271.00;;;;4982392;28;87575;-66
2023/09/27 08:13:53;;;;;;;2.83;2.42;;;24.90;92.90;25.10;101274.00;;;;4992334;28;88650;-67
2023/09/27 08:16:19;;;;;;;4.38;3.25;;;24.90;92.90;25.10;101267.00;;;;4978721;28;90809;-68
2023/09/27 08:18:45;;;;;;;6.22;3.28;;;24.90;92.70;25.10;101277.00;;;;4981137;28;105324;-66
2023/09/27 08:21:11;;;;;;;8.45;3.40;;;24.90;92.60;25.10;101275.00;;;;4989135;28;103352;-67
2023/09/27 08:23:36;;;;;;;5.72;3.53;;;25.00;92.20;25.20;101268.00;;;;4990027;28;108916;-66
2023/09/27 08:26:02;;;;;;;3.65;3.33;;;26.00;92.80;25.40;101263.00;;;;4991261;28;88235;-66
2023/09/27 08:28:31;;;;;;;4.15;2.95;;;25.10;92.30;25.60;101262.00;;;;4975496;28;87905;-67
2023/09/27 08:31:00;;;;;;;6.80;3.45;;;25.20;92.20;25.70;101256.00;;;;4995985;28;87003;-66
2023/09/27 08:33:27;;;;;;;4.22;3.03;;;26.20;92.00;25.90;101257.00;;;;4991922;28;108079;-66
2023/09/27 08:35:53;;;;;;;6.15;3.42;;;25.60;91.30;25.90;101257.00;;;;4987947;28;89392;-66
2023/09/27 08:38:20;;;;;;;3.33;2.83;;;25.70;91.10;26.00;101252.00;;;;4994372;28;88887;-66
2023/09/27 08:40:48;;;;;;;3.72;2.10;;;25.80;90.90;26.10;101246.00;;;;4973913;28;96598;-64
2023/09/27 08:43:17;;;;;;;3.88;2.65;;;26.80;91.00;26.20;101241.00;;;;4957910;28;87771;-66
2023/09/27 08:45:45;;;;;;;4.38;3.13;;;26.00;90.10;26.30;101252.00;;;;4989725;27;87648;-66
2023/09/27 08:48:20;;;;;;;3.20;2.80;;;26.00;89.80;26.40;101241.00;;;;4990286;28;89191;-66
2023/09/27 08:50:46;;;;;;;4.53;2.90;;;26.10;89.80;26.60;101244.00;;;;4993156;28;87891;-65
2023/09/27 08:53:12;;;;;;;4.32;3.20;;;26.30;89.60;26.70;101228.00;;;;4991167;28;87731;-66
2023/09/27 08:55:38;;;;;;;3.22;2.65;;;26.40;88.30;26.90;101231.00;;;;4993336;28;86742;-66
2023/09/27 08:58:06;;;;;;;6.32;3.63;;;26.50;88.40;27.00;101230.00;;;;4976503;28;87932;-65
2023/09/27 09:00:33;;;;;;;6.03;3.35;;;26.70;87.40;27.20;101231.00;;;;4978401;28;88573;-66
2023/09/27 09:03:00;;;;;;;5.40;2.35;;;26.80;86.40;27.20;101220.00;;;;4981018;28;88863;-66
2023/09/27 09:05:30;;;;;;;3.67;3.38;;;26.90;85.70;27.30;101220.00;;;;4994825;28;88996;-66
2023/09/27 09:07:57;;;;;;;2.88;2.55;;;27.00;85.30;27.40;101217.00;;;;4991914;28;87598;-67
2023/09/27 09:10:23;;;;;;;4.88;2.70;;;27.10;84.90;27.50;101211.00;;;;4991203;28;88104;-67
2023/09/27 09:12:50;;;;;;;5.07;3.50;;;27.20;84.10;27.50;101206.00;;;;4990993;28;87987;-66
2023/09/27 09:15:40;;;;;;;8.05;3.22;;;27.20;83.50;27.60;101211.00;;;;4977796;28;89954;-65
2023/09/27 09:18:10;;;;;;;6.93;3.13;;;27.30;83.70;27.80;101214.00;;;;4972809;28;88095;-65
2023/09/27 09:20:49;;;;;;;9.85;2.83;;;27.40;83.40;28.20;101197.00;;;;4992684;28;99297;-68
2023/09/27 09:23:35;;;;;;;5.32;2.58;;;27.90;81.70;28.40;101194.00;;;;4991559;28;87681;-65
2023/09/27 09:26:09;;;;;;;3.58;2.38;;;27.90;80.60;28.60;101203.00;;;;4986720;28;88421;-65
2023/09/27 09:28:56;;;;;;;3.28;3.00;;;28.20;80.00;28.70;101198.00;;;;4988026;28;88845;-65
2023/09/27 09:31:28;;;;;;;3.92;2.78;;;28.30;78.00;28.70;101192.00;;;;4989085;28;87778;-67
2023/09/27 09:34:05;;;;;;;4.03;2.47;;;28.30;77.20;28.70;101190.00;;;;4987873;28;87812;-65
2023/09/27 09:36:31;;;;;;;5.07;2.83;;;28.30;77.30;28.80;101176.00;;;;4989132;28;87767;-66
2023/09/27 09:39:17;;;;;;;3.97;3.00;;;28.40;76.90;28.90;101192.00;;;;4988563;28;88305;-67
2023/09/27 09:41:48;;;;;;;3.90;2.75;;;28.50;77.00;29.00;101174.00;;;;4990901;28;87541;-67
2023/09/27 09:44:20;;;;;;;5.72;2.63;;;28.60;75.20;28.90;101166.00;;;;4989012;27;88593;-66
2023/09/27 09:46:46;;;;;;;3.08;2.03;;;28.60;74.70;29.00;101168.00;;;;4987786;28;87429;-68
2023/09/27 09:49:15;;;;;;;5.30;3.25;;;28.50;75.20;29.10;101177.00;;;;4988123;28;87848;-68
2023/09/27 09:51:49;;;;;;;6.90;3.63;;;28.70;75.50;29.40;101174.00;;;;4989086;27;87856;-67
2023/09/27 09:54:28;;;;;;;5.00;2.30;;;28.80;75.20;29.60;101176.00;;;;4991052;28;89044;-67
2023/09/27 09:56:59;;;;;;;2.88;2.22;;;29.20;74.80;29.70;101171.00;;;;4988980;28;88349;-65
2023/09/27 09:59:35;;;;;;;3.90;3.17;;;29.20;73.10;29.70;101176.00;;;;4987440;28;88110;-67
2023/09/27 10:02:14;;;;;;;2.80;2.47;;;29.20;72.60;29.80;101170.00;;;;4976833;28;87673;-67
2023/09/27 10:04:40;;;;;;;3.03;2.45;;;29.30;72.90;30.10;101174.00;;;;4973195;28;87839;-68
2023/09/27 10:07:06;;;;;;;3.40;2.15;;;29.50;72.80;30.40;101175.00;;;;4963168;28;117677;-65
2023/09/27 10:09:32;;;;;;;2.20;2.00;;;29.80;71.90;30.60;101181.00;;;;4991463;28;116302;-67
2023/09/27 10:11:59;;;;;;;3.70;2.95;;;30.00;70.20;30.70;101179.00;;;;4972401;28;109439;-66
2023/09/27 10:14:26;;;;;;;3.40;2.17;;;30.20;70.30;31.00;101175.00;;;;4992043;28;87952;-68
2023/09/27 10:16:51;;;;;;;4.68;2.45;;;30.40;68.70;31.20;101174.00;;;;4991009;28;116228;-68
2023/09/27 10:19:28;;;;;;;2.78;1.83;;;30.60;68.40;31.50;101179.00;;;;4988578;28;89096;-68
2023/09/27 10:22:05;;;;;;;3.00;2.45;;;30.30;67.00;31.70;101174.00;;;;4991631;28;87945;-69
2023/09/27 10:24:36;;;;;;;2.35;1.98;;;31.10;66.20;31.70;101176.00;;;;4992269;28;87685;-67
2023/09/27 10:27:01;;;;;;;3.70;2.72;;;31.10;64.20;31.60;101179.00;;;;4990060;28;88646;-67
2023/09/27 10:29:29;;;;;;;4.90;2.35;;;31.10;64.20;31.50;101173.00;;;;4993300;28;88356;-68
2023/09/27 10:31:57;;;;;;;3.40;3.10;;;31.00;63.40;31.60;101165.00;;;;4991898;28;87765;-68
2023/09/27 10:34:43;;;;;;;2.08;1.90;;;31.10;64.20;32.00;101174.00;;;;4992837;28;88041;-68
2023/09/27 10:37:09;;;;;;;3.00;2.35;;;31.30;64.00;32.10;101177.00;;;;4995464;28;117721;-66
2023/09/27 10:39:38;;;;;;;3.45;2.58;;;31.50;61.50;32.30;101168.00;;;;4994145;28;87710;-70
2023/09/27 10:42:04;;;;;;;4.47;2.33;;;31.90;61.70;32.50;101170.00;;;;4993525;28;87723;-69
2023/09/27 10:44:36;;;;;;;6.45;2.40;;;31.90;60.30;32.60;101166.00;;;;4988769;28;106893;-69
2023/09/27 10:47:04;;;;;;;2.58;1.95;;;32.00;60.30;32.70;101164.00;;;;4966403;28;89402;-69
2023/09/27 10:49:38;;;;;;;2.53;2.30;;;32.10;58.80;32.90;101162.00;;;;4993063;27;88070;-68